Index of /wp-hr-content/uploads/wpfc-backup/2016/09/

NameLast ModifiedSize
UpParent Directory
[IMG]51614-Guam-1024x576.jpg2021-09-30 11:37 86k
[IMG]51614-Guam-1080x608.jpg2021-09-30 11:37 95k
[IMG]51614-Guam-1080x675.jpg2021-09-30 11:37 85k
[IMG]51614-Guam-150x150.jpg2021-09-30 11:37 5k
[IMG]51614-Guam-300x169.jpg2021-09-30 11:37 10k
[IMG]51614-Guam-400x250.jpg2021-09-30 11:37 18k
[IMG]51614-Guam-400x284.jpg2021-09-30 11:37 20k
[IMG]51614-Guam-510x382.jpg2021-09-30 11:37 31k
[IMG]51614-Guam-768x432.jpg2021-09-30 11:37 53k
[IMG]51614-Guam.jpg2021-09-30 11:37 209k
[IMG]Coral-2-min-510x382.jpg2021-09-30 11:52 510k
[IMG]Coral-2-min.jpg2021-09-30 11:52 2320k
[IMG]DSC_0379-300x200.jpg2021-09-30 11:50 22k
[IMG]DSC_0379.jpg2021-09-30 11:50 13201k
[IMG]GSWA-150x150.jpg2021-09-30 11:34 8k
[IMG]GSWA-300x250.jpg2021-09-30 11:34 19k
[IMG]GSWA-300x284.jpg2021-09-30 11:34 20k
[IMG]GSWA-300x298.jpg2021-09-30 11:34 21k
[IMG]GSWA.jpg2021-09-30 11:34 20k
[IMG]guam-beach-1024x552.jpg2021-09-30 11:36 69k
[IMG]guam-beach-1080x582.jpg2021-09-30 11:36 76k
[IMG]guam-beach-1080x675.jpg2021-09-30 11:36 66k
[IMG]guam-beach-150x150.jpg2021-09-30 11:36 5k
[IMG]guam-beach-300x162.jpg2021-09-30 11:36 10k
[IMG]guam-beach-400x250.jpg2021-09-30 11:36 17k
[IMG]guam-beach-400x284.jpg2021-09-30 11:36 18k
[IMG]guam-beach-510x382.jpg2021-09-30 11:37 28k
[IMG]guam-beach-768x414.jpg2021-09-30 11:36 43k
[IMG]guam-beach.jpg2021-09-30 11:36 131k
[IMG]image1470.jpg2021-09-30 11:52 6k
[IMG]images-1-150x150.jpg2021-09-30 11:50 7k
[IMG]images-1.jpg2021-09-30 11:50 12k
[IMG]Logo.png2021-09-30 11:52 48k
Proudly Served by LiteSpeed Web Server at hr.doa.guam.gov Port 443